Time;durP1;ratioP1;P1;durP2;ratioP2;P2;SDS_P1;SDS_P2;PMS_P1;PMS_P2;Temp;Humidity;BMP_temperature;BMP_pressure;BME280_temperature;BME280_humidity;BME280_pressure;Samples;Min_cycle;Max_cycle;Signal;HPM_P1;HPM_P2
2021/05/25 00:00:25;;;;;;;;;;;10.60;99.90;;;;;;5094816;28;19963;-65
2021/05/25 00:02:54;;;;;;;;;;;10.60;99.90;;;;;;5097038;28;19931;-65
2021/05/25 00:05:24;;;;;;;;;;;10.60;99.90;;;;;;5078556;28;19926;-66
2021/05/25 00:08:41;;;;;;;;;;;10.60;99.90;;;;;;5096191;28;19931;-66
2021/05/25 00:11:09;;;;;;;;;;;10.20;99.90;;;;;;5078920;28;19920;-66
2021/05/25 00:13:37;;;;;;;;;;;10.30;99.90;;;;;;5095839;28;19920;-65
2021/05/25 00:16:05;;;;;;;;;;;10.10;99.90;;;;;;5094476;28;19920;-65
2021/05/25 00:18:34;;;;;;;;;;;10.10;99.90;;;;;;5094427;28;19920;-65
2021/05/25 00:21:06;;;;;;;;;;;10.30;99.90;;;;;;5094046;28;20394;-68
2021/05/25 00:23:34;;;;;;;;;;;10.30;99.90;;;;;;5076121;28;19919;-65
2021/05/25 00:26:02;;;;;;;;;;;10.40;99.90;;;;;;5094194;28;19932;-66
2021/05/25 00:28:30;;;;;;;;;;;10.30;99.90;;;;;;5094305;28;19959;-66
2021/05/25 00:30:57;;;;;;;;;;;10.30;99.90;;;;;;5074622;28;20383;-66
2021/05/25 00:33:25;;;;;;;;;;;10.30;99.90;;;;;;5075285;28;20271;-65
2021/05/25 00:35:55;;;;;;;;;;;10.20;99.90;;;;;;5093799;28;20309;-66
2021/05/25 00:38:23;;;;;;;;;;;10.20;99.90;;;;;;5093650;28;19926;-65
2021/05/25 00:40:52;;;;;;;;;;;10.30;99.90;;;;;;5093771;28;19926;-65
2021/05/25 00:43:21;;;;;;;;;;;10.10;99.90;;;;;;5093601;28;20426;-68
2021/05/25 00:45:49;;;;;;;;;;;10.10;99.90;;;;;;5096568;28;19924;-68
2021/05/25 00:48:19;;;;;;;;;;;10.20;99.90;;;;;;5079513;28;19920;-65
2021/05/25 00:50:47;;;;;;;;;;;10.20;99.90;;;;;;5097701;28;19920;-65
2021/05/25 00:53:15;;;;;;;;;;;10.20;99.90;;;;;;5097723;28;20359;-65
2021/05/25 00:55:43;;;;;;;;;;;10.30;99.90;;;;;;5097282;28;20023;-65
2021/05/25 00:58:11;;;;;;;;;;;10.30;99.90;;;;;;5097561;28;19919;-66
2021/05/25 01:00:40;;;;;;;;;;;10.30;99.90;;;;;;5078470;28;19920;-66
2021/05/25 01:03:09;;;;;;;;;;;10.20;99.90;;;;;;5097609;28;19927;-66
2021/05/25 01:05:37;;;;;;;;;;;10.20;99.90;;;;;;5097327;28;19920;-65
2021/05/25 01:08:05;;;;;;;;;;;10.10;99.90;;;;;;5079275;28;19920;-65
2021/05/25 01:10:36;;;;;;;;;;;10.10;99.90;;;;;;5097587;28;19938;-66
2021/05/25 01:13:09;;;;;;;;;;;10.20;99.90;;;;;;5097358;28;19931;-65
2021/05/25 01:15:38;;;;;;;;;;;10.20;99.90;;;;;;5096344;28;20000;-66
2021/05/25 01:18:07;;;;;;;;;;;10.20;99.90;;;;;;5096858;28;20010;-65
2021/05/25 01:20:39;;;;;;;;;;;10.20;99.90;;;;;;5097113;28;19920;-66
2021/05/25 01:23:09;;;;;;;;;;;10.20;99.90;;;;;;5078736;28;19920;-65
2021/05/25 01:25:37;;;;;;;;;;;10.10;99.90;;;;;;5078913;28;19926;-66
2021/05/25 01:28:06;;;;;;;;;;;10.10;99.90;;;;;;5097191;28;19920;-66
2021/05/25 01:30:35;;;;;;;;;;;10.20;99.90;;;;;;5095907;28;20271;-65
2021/05/25 01:33:04;;;;;;;;;;;10.20;99.90;;;;;;5096911;28;19959;-65
2021/05/25 01:35:33;;;;;;;;;;;10.00;99.90;;;;;;5096991;28;19927;-65
2021/05/25 01:40:56;;;;;;;;;;;10.00;99.90;;;;;;5096432;28;20279;-65
2021/05/25 01:43:25;;;;;;;;;;;10.00;99.90;;;;;;5078457;28;19919;-65
2021/05/25 01:45:53;;;;;;;;;;;10.00;99.90;;;;;;5095632;28;19942;-65
2021/05/25 01:48:21;;;;;;;;;;;9.90;99.90;;;;;;5097091;28;19946;-65
2021/05/25 01:50:48;;;;;;;;;;;9.90;99.90;;;;;;5096505;28;19927;-65
2021/05/25 01:53:17;;;;;;;;;;;9.90;99.90;;;;;;5096626;28;19927;-66
2021/05/25 01:55:45;;;;;;;;;;;9.90;99.90;;;;;;5095019;28;19955;-65
2021/05/25 01:58:15;;;;;;;;;;;9.80;99.90;;;;;;5096519;28;20283;-65
2021/05/25 02:00:44;;;;;;;;;;;9.80;99.90;;;;;;5060587;28;19920;-65
2021/05/25 02:03:11;;;;;;;;;;;9.80;99.90;;;;;;5096392;28;20272;-65
2021/05/25 02:05:40;;;;;;;;;;;9.80;99.90;;;;;;5096386;28;20410;-65
2021/05/25 02:08:08;;;;;;;;;;;9.70;99.90;;;;;;5096419;28;19920;-65
2021/05/25 02:10:38;;;;;;;;;;;9.70;99.90;;;;;;5077970;28;19920;-66
2021/05/25 02:13:32;;;;;;;;;;;9.70;99.90;;;;;;5096596;28;19942;-64
2021/05/25 02:16:01;;;;;;;;;;;9.90;99.90;;;;;;5095016;28;19927;-65
2021/05/25 02:18:30;;;;;;;;;;;9.90;99.90;;;;;;5095863;28;19920;-65
2021/05/25 02:20:59;;;;;;;;;;;10.00;99.90;;;;;;5077604;28;20007;-65
2021/05/25 02:23:27;;;;;;;;;;;9.80;99.90;;;;;;5077983;28;19958;-65
2021/05/25 02:25:55;;;;;;;;;;;9.70;99.90;;;;;;5095757;28;19942;-66
2021/05/25 02:28:23;;;;;;;;;;;9.70;99.90;;;;;;5078191;28;19924;-65
2021/05/25 02:30:52;;;;;;;;;;;9.50;99.90;;;;;;5095915;28;19931;-65
2021/05/25 02:33:21;;;;;;;;;;;9.70;99.90;;;;;;5096874;28;20359;-64
2021/05/25 02:35:50;;;;;;;;;;;9.60;99.90;;;;;;5077799;28;20340;-65
2021/05/25 02:38:21;;;;;;;;;;;9.70;99.90;;;;;;5096001;28;19927;-68
2021/05/25 02:40:49;;;;;;;;;;;9.80;99.90;;;;;;5095480;28;19960;-65
2021/05/25 02:43:19;;;;;;;;;;;9.60;99.90;;;;;;5096254;28;19920;-65
2021/05/25 02:45:48;;;;;;;;;;;9.50;99.90;;;;;;5094396;28;19951;-67
2021/05/25 02:48:16;;;;;;;;;;;9.40;99.90;;;;;;5096208;28;19920;-65
2021/05/25 02:50:44;;;;;;;;;;;9.50;99.90;;;;;;5096242;28;19920;-65
2021/05/25 02:53:12;;;;;;;;;;;9.60;99.90;;;;;;5095544;28;19920;-66
2021/05/25 02:55:40;;;;;;;;;;;9.40;99.90;;;;;;5095369;28;20004;-65
2021/05/25 02:58:09;;;;;;;;;;;9.40;99.90;;;;;;5095414;28;20014;-65
2021/05/25 03:00:38;;;;;;;;;;;9.40;99.90;;;;;;5076097;28;19920;-65
2021/05/25 03:03:06;;;;;;;;;;;9.50;99.90;;;;;;5077217;28;20374;-65
2021/05/25 03:05:37;;;;;;;;;;;9.60;99.90;;;;;;5095289;28;19926;-65
2021/05/25 03:08:06;;;;;;;;;;;9.60;99.90;;;;;;5095884;28;19924;-65
2021/05/25 03:10:36;;;;;;;;;;;9.60;99.90;;;;;;5095866;28;19920;-67
2021/05/25 03:13:04;;;;;;;;;;;9.50;99.90;;;;;;5095565;28;19920;-66
2021/05/25 03:15:34;;;;;;;;;;;9.50;99.90;;;;;;5095077;28;19920;-68
2021/05/25 03:18:02;;;;;;;;;;;9.40;99.90;;;;;;5094871;28;19923;-66
2021/05/25 03:20:31;;;;;;;;;;;9.40;99.90;;;;;;5094911;28;19935;-66
2021/05/25 03:23:00;;;;;;;;;;;9.40;99.90;;;;;;5094827;28;19920;-67
2021/05/25 03:25:29;;;;;;;;;;;9.40;99.90;;;;;;5076544;28;19946;-67
2021/05/25 03:27:57;;;;;;;;;;;9.40;99.90;;;;;;5094958;28;19950;-66
2021/05/25 03:30:27;;;;;;;;;;;9.30;99.90;;;;;;5094113;28;20335;-66
2021/05/25 03:32:55;;;;;;;;;;;9.20;99.90;;;;;;5094555;28;19919;-66
2021/05/25 03:35:23;;;;;;;;;;;9.20;99.90;;;;;;5094814;28;20119;-65
2021/05/25 03:37:57;;;;;;;;;;;9.30;99.90;;;;;;5059798;28;20315;-66
2021/05/25 03:40:26;;;;;;;;;;;9.30;99.90;;;;;;5076471;28;20006;-66
2021/05/25 03:42:54;;;;;;;;;;;9.00;99.90;;;;;;5094796;28;19920;-66
2021/05/25 03:45:23;;;;;;;;;;;9.10;99.90;;;;;;5093495;28;19926;-66
2021/05/25 03:47:51;;;;;;;;;;;9.00;99.90;;;;;;5095758;28;20343;-66
2021/05/25 03:50:19;;;;;;;;;;;9.00;99.90;;;;;;5097869;28;20352;-66
2021/05/25 03:52:48;;;;;;;;;;;9.10;99.90;;;;;;5076268;28;19920;-66
2021/05/25 03:55:23;;;;;;;;;;;9.10;99.90;;;;;;5076096;28;19927;-65
2021/05/25 04:00:37;;;;;;;;;;;9.10;99.90;;;;;;5093435;28;19943;-66
2021/05/25 04:03:05;;;;;;;;;;;9.10;99.90;;;;;;5075930;28;19935;-66
2021/05/25 04:05:37;;;;;;;;;;;9.10;99.90;;;;;;5094395;28;19943;-66
2021/05/25 04:08:05;;;;;;;;;;;9.10;99.90;;;;;;5075947;28;19920;-67
2021/05/25 04:10:34;;;;;;;;;;;8.90;99.90;;;;;;5093982;28;19920;-66
2021/05/25 04:13:03;;;;;;;;;;;9.00;99.90;;;;;;5093941;28;19920;-67
2021/05/25 04:15:30;;;;;;;;;;;9.00;99.90;;;;;;5092964;28;19955;-66
2021/05/25 04:17:59;;;;;;;;;;;8.90;99.90;;;;;;5075582;28;19929;-66
2021/05/25 04:20:27;;;;;;;;;;;8.90;99.90;;;;;;5093094;28;19920;-66
2021/05/25 04:22:57;;;;;;;;;;;8.80;99.90;;;;;;5093688;28;20295;-66
2021/05/25 04:25:29;;;;;;;;;;;8.80;99.90;;;;;;5075359;28;19943;-65
2021/05/25 04:27:57;;;;;;;;;;;8.60;99.90;;;;;;5058964;28;20397;-65
2021/05/25 04:30:26;;;;;;;;;;;8.60;99.90;;;;;;5092840;28;20311;-65
2021/05/25 04:32:53;;;;;;;;;;;8.70;99.90;;;;;;5094095;28;20368;-66
2021/05/25 04:35:21;;;;;;;;;;;8.90;99.90;;;;;;5075514;28;19955;-66
2021/05/25 04:40:41;;;;;;;;;;;9.10;99.90;;;;;;5093843;28;19962;-68
2021/05/25 04:43:09;;;;;;;;;;;9.00;99.90;;;;;;5093950;28;19919;-66
2021/05/25 04:45:39;;;;;;;;;;;9.10;99.90;;;;;;5092908;28;19954;-65
2021/05/25 04:48:07;;;;;;;;;;;9.20;99.90;;;;;;5093934;28;19920;-68
2021/05/25 04:50:34;;;;;;;;;;;9.30;99.90;;;;;;5094145;28;20344;-66
2021/05/25 04:53:02;;;;;;;;;;;9.30;99.90;;;;;;5094899;28;19962;-65
2021/05/25 04:55:30;;;;;;;;;;;9.40;99.90;;;;;;5076501;28;20006;-65
2021/05/25 04:57:58;;;;;;;;;;;9.60;99.90;;;;;;5082494;28;19927;-66
2021/05/25 05:00:26;;;;;;;;;;;9.60;99.90;;;;;;5101973;28;19927;-66
2021/05/25 05:02:56;;;;;;;;;;;9.70;99.90;;;;;;5083152;28;20042;-65
2021/05/25 05:05:24;;;;;;;;;;;9.70;99.90;;;;;;5077248;28;20122;-66
2021/05/25 05:08:17;;;;;;;;;;;9.90;99.90;;;;;;5094474;28;19920;-66
2021/05/25 05:10:50;;;;;;;;;;;10.10;99.90;;;;;;5093894;28;20018;-66
2021/05/25 05:13:18;;;;;;;;;;;10.30;99.90;;;;;;5059191;28;19924;-66
2021/05/25 05:15:46;;;;;;;;;;;10.30;99.90;;;;;;5093413;28;20324;-66
2021/05/25 05:18:14;;;;;;;;;;;10.40;99.90;;;;;;5094100;28;19920;-66
2021/05/25 05:20:42;;;;;;;;;;;10.60;99.90;;;;;;5076497;28;19951;-65
2021/05/25 05:23:10;;;;;;;;;;;10.50;99.90;;;;;;5094006;28;19927;-66
2021/05/25 05:25:37;;;;;;;;;;;10.60;99.90;;;;;;5095882;28;19958;-66
2021/05/25 05:28:05;;;;;;;;;;;10.70;99.90;;;;;;5098407;28;20029;-66
2021/05/25 05:30:34;;;;;;;;;;;10.60;99.90;;;;;;5097823;28;19920;-67
2021/05/25 05:33:02;;;;;;;;;;;10.70;99.90;;;;;;5099836;28;19931;-66
2021/05/25 05:35:31;;;;;;;;;;;10.60;99.90;;;;;;5084018;28;19920;-66
2021/05/25 05:37:59;;;;;;;;;;;10.70;99.90;;;;;;5101282;28;19934;-66
2021/05/25 05:40:27;;;;;;;;;;;10.90;99.90;;;;;;5084392;28;19923;-66
2021/05/25 05:43:06;;;;;;;;;;;10.80;99.90;;;;;;5103154;28;19974;-66
2021/05/25 05:45:34;;;;;;;;;;;11.00;99.90;;;;;;5085007;28;19928;-66
2021/05/25 05:48:02;;;;;;;;;;;11.00;99.90;;;;;;5087832;28;20026;-66
2021/05/25 05:50:30;;;;;;;;;;;10.90;99.90;;;;;;5102867;28;19920;-66
2021/05/25 05:52:58;;;;;;;;;;;11.20;99.90;;;;;;5100476;28;20041;-66
2021/05/25 05:55:26;;;;;;;;;;;11.30;99.90;;;;;;5080441;28;20015;-66
2021/05/25 05:57:54;;;;;;;;;;;11.00;99.90;;;;;;5098390;28;19920;-66
2021/05/25 06:00:22;;;;;;;;;;;11.10;99.90;;;;;;5079322;28;20240;-65
2021/05/25 06:02:50;;;;;;;;;;;11.40;99.90;;;;;;5097455;28;20351;-66
2021/05/25 06:05:17;;;;;;;;;;;11.60;99.90;;;;;;5097253;28;19927;-66
2021/05/25 06:07:47;;;;;;;;;;;11.90;99.90;;;;;;5097772;28;19920;-68
2021/05/25 06:10:16;;;;;;;;;;;11.80;99.90;;;;;;5097307;28;20011;-66
2021/05/25 06:12:44;;;;;;;;;;;11.60;99.90;;;;;;5098264;28;19924;-66
2021/05/25 06:15:14;;;;;;;;;;;11.50;99.90;;;;;;5097245;28;19922;-66
2021/05/25 06:17:41;;;;;;;;;;;11.10;99.90;;;;;;5096450;28;20257;-65
2021/05/25 06:20:12;;;;;;;;;;;11.00;99.90;;;;;;5097276;28;20287;-66
2021/05/25 06:22:40;;;;;;;;;;;10.90;99.90;;;;;;5079628;28;19942;-66
2021/05/25 06:28:03;;;;;;;;;;;11.30;99.90;;;;;;5097512;28;19928;-65
2021/05/25 06:30:32;;;;;;;;;;;11.80;99.90;;;;;;5097630;28;19993;-66
2021/05/25 06:32:59;;;;;;;;;;;11.90;99.90;;;;;;5097849;28;19963;-66
2021/05/25 06:35:27;;;;;;;;;;;11.90;99.90;;;;;;5097611;28;19920;-66
2021/05/25 06:38:00;;;;;;;;;;;12.20;99.90;;;;;;5098338;28;20042;-66
2021/05/25 06:40:29;;;;;;;;;;;12.20;99.90;;;;;;5097540;28;20010;-66
2021/05/25 06:42:57;;;;;;;;;;;12.50;99.90;;;;;;5096567;28;19920;-65
2021/05/25 06:45:25;;;;;;;;;;;12.70;99.80;;;;;;5096210;28;19959;-65
2021/05/25 06:47:53;;;;;;;;;;;13.60;98.40;;;;;;5097273;28;19920;-68
2021/05/25 06:50:21;;;;;;;;;;;14.00;97.10;;;;;;5097725;28;19920;-65
2021/05/25 06:52:48;;;;;;;;;;;14.60;95.50;;;;;;5097282;28;20253;-66
2021/05/25 06:55:17;;;;;;;;;;;14.70;95.00;;;;;;5097625;28;19920;-66
2021/05/25 06:57:51;;;;;;;;;;;13.70;96.30;;;;;;5097332;28;19920;-66
2021/05/25 07:00:21;;;;;;;;;;;13.80;96.20;;;;;;5095934;28;20268;-65
2021/05/25 07:02:49;;;;;;;;;;;15.20;93.50;;;;;;5096980;28;19920;-66
2021/05/25 07:05:17;;;;;;;;;;;14.70;94.20;;;;;;5096577;28;19920;-66
2021/05/25 07:07:45;;;;;;;;;;;14.90;94.00;;;;;;5097098;28;19924;-66
2021/05/25 07:10:13;;;;;;;;;;;14.40;94.70;;;;;;5096358;28;19924;-66
2021/05/25 07:12:42;;;;;;;;;;;14.80;94.30;;;;;;5079318;28;20268;-66
2021/05/25 07:15:12;;;;;;;;;;;15.70;92.50;;;;;;5095945;28;19927;-66
2021/05/25 07:17:47;;;;;;;;;;;16.60;90.10;;;;;;5096101;28;20014;-68
2021/05/25 07:20:16;;;;;;;;;;;15.30;88.50;;;;;;5096249;28;19959;-66
2021/05/25 07:22:43;;;;;;;;;;;14.70;91.80;;;;;;5096327;28;19927;-66
2021/05/25 07:25:36;;;;;;;;;;;15.70;90.60;;;;;;5096376;28;20248;-66
2021/05/25 07:28:05;;;;;;;;;;;15.70;90.20;;;;;;5078132;28;19927;-66
2021/05/25 07:30:35;;;;;;;;;;;15.10;90.60;;;;;;5095100;28;20253;-66
2021/05/25 07:33:05;;;;;;;;;;;14.00;92.00;;;;;;5096691;28;20008;-66
2021/05/25 07:35:32;;;;;;;;;;;14.20;91.60;;;;;;5096216;28;20002;-66
2021/05/25 07:38:00;;;;;;;;;;;16.00;89.10;;;;;;5096298;28;20375;-66
2021/05/25 07:40:28;;;;;;;;;;;14.90;90.20;;;;;;5096426;28;19930;-66
2021/05/25 07:42:56;;;;;;;;;;;13.60;92.80;;;;;;5096539;28;19928;-66
2021/05/25 07:45:24;;;;;;;;;;;12.60;95.40;;;;;;5077288;28;19919;-66
2021/05/25 07:47:52;;;;;;;;;;;12.70;96.50;;;;;;5095722;28;20383;-66
2021/05/25 07:50:20;;;;;;;;;;;13.60;95.50;;;;;;5096144;28;19920;-66
2021/05/25 07:52:50;;;;;;;;;;;14.80;93.50;;;;;;5096651;28;19919;-66
2021/05/25 07:55:21;;;;;;;;;;;14.70;91.70;;;;;;5096328;28;19920;-66
2021/05/25 07:57:49;;;;;;;;;;;15.10;92.50;;;;;;5096607;28;19927;-66
2021/05/25 08:00:17;;;;;;;;;;;17.40;87.60;;;;;;5094870;28;19942;-66
2021/05/25 08:02:45;;;;;;;;;;;18.20;81.00;;;;;;5096258;28;20026;-66
2021/05/25 08:05:16;;;;;;;;;;;15.50;86.90;;;;;;5095907;28;20043;-66
2021/05/25 08:07:44;;;;;;;;;;;13.90;91.40;;;;;;5079110;28;19930;-66
2021/05/25 08:10:13;;;;;;;;;;;13.80;92.40;;;;;;5097579;28;20003;-66
2021/05/25 08:12:41;;;;;;;;;;;14.00;90.80;;;;;;5100132;28;19974;-66
2021/05/25 08:15:10;;;;;;;;;;;13.20;92.00;;;;;;5102835;28;19987;-66
2021/05/25 08:17:50;;;;;;;;;;;13.30;92.20;;;;;;5100064;28;19973;-66
2021/05/25 08:20:20;;;;;;;;;;;13.20;92.00;;;;;;5101546;28;19955;-66
2021/05/25 08:23:10;;;;;;;;;;;13.10;91.70;;;;;;5100681;28;19920;-67
2021/05/25 08:25:39;;;;;;;;;;;13.50;91.70;;;;;;5098418;28;19920;-66
2021/05/25 08:28:07;;;;;;;;;;;13.60;91.10;;;;;;5079128;28;19920;-65
2021/05/25 08:30:38;;;;;;;;;;;14.90;89.20;;;;;;5097260;28;20019;-66
2021/05/25 08:33:07;;;;;;;;;;;16.30;82.80;;;;;;5096703;28;19943;-66
2021/05/25 08:35:40;;;;;;;;;;;16.50;80.40;;;;;;5077510;28;19930;-66
2021/05/25 08:38:09;;;;;;;;;;;16.70;79.40;;;;;;5096065;28;19981;-66
2021/05/25 08:40:38;;;;;;;;;;;16.30;78.40;;;;;;5096188;28;19919;-66
2021/05/25 08:43:06;;;;;;;;;;;17.70;74.40;;;;;;5095949;28;20387;-69
2021/05/25 08:45:34;;;;;;;;;;;18.80;68.00;;;;;;5077322;28;19920;-66
2021/05/25 08:48:05;;;;;;;;;;;19.80;63.60;;;;;;5096082;28;19928;-66
2021/05/25 08:50:50;;;;;;;;;;;18.60;60.70;;;;;;5097093;28;20338;-67
2021/05/25 08:53:18;;;;;;;;;;;17.80;65.90;;;;;;5096888;28;19965;-67
2021/05/25 08:55:48;;;;;;;;;;;16.40;70.90;;;;;;5096838;28;20327;-66
2021/05/25 08:58:17;;;;;;;;;;;15.60;75.30;;;;;;5097435;28;19920;-67
2021/05/25 09:00:45;;;;;;;;;;;18.20;70.00;;;;;;5095265;28;19930;-69
2021/05/25 09:03:15;;;;;;;;;;;20.10;65.30;;;;;;5078814;28;20235;-66
2021/05/25 09:05:47;;;;;;;;;;;23.00;57.10;;;;;;5097749;28;19923;-67
2021/05/25 09:08:23;;;;;;;;;;;21.60;56.20;;;;;;5099644;28;19920;-66
2021/05/25 09:10:51;;;;;;;;;;;20.80;57.50;;;;;;5099723;28;19934;-67
2021/05/25 09:13:20;;;;;;;;;;;18.50;60.40;;;;;;5098667;28;20019;-67
2021/05/25 09:15:48;;;;;;;;;;;15.90;68.80;;;;;;5097940;28;19927;-66
2021/05/25 09:18:17;;;;;;;;;;;14.10;75.10;;;;;;5080570;28;19920;-66
2021/05/25 09:20:46;;;;;;;;;;;13.20;83.60;;;;;;5098868;28;20347;-66
2021/05/25 09:23:17;;;;;;;;;;;12.50;90.30;;;;;;5098788;28;19920;-69
2021/05/25 09:25:57;;;;;;;;;;;12.00;98.00;;;;;;5080557;28;19955;-67
2021/05/25 09:28:25;;;;;;;;;;;11.30;99.90;;;;;;5098745;28;20265;-65
2021/05/25 09:30:54;;;;;;;;;;;11.30;99.90;;;;;;5097749;28;19951;-66
2021/05/25 09:33:27;;;;;;;;;;;12.10;99.90;;;;;;5098497;28;19959;-66
2021/05/25 09:35:55;;;;;;;;;;;13.00;99.90;;;;;;5098561;28;19927;-66
2021/05/25 09:38:25;;;;;;;;;;;13.80;99.90;;;;;;5099152;28;20309;-69
2021/05/25 09:40:59;;;;;;;;;;;14.60;98.00;;;;;;5099540;28;19920;-66
2021/05/25 09:43:28;;;;;;;;;;;14.80;97.20;;;;;;5098657;28;19919;-66
2021/05/25 09:45:57;;;;;;;;;;;14.80;97.00;;;;;;5098167;28;19927;-66
2021/05/25 09:48:25;;;;;;;;;;;14.70;96.80;;;;;;5097277;28;19991;-66
2021/05/25 09:50:54;;;;;;;;;;;14.30;97.00;;;;;;5098835;28;19920;-66
2021/05/25 09:53:23;;;;;;;;;;;14.20;95.40;;;;;;5099192;28;19955;-66
2021/05/25 09:55:52;;;;;;;;;;;14.20;94.80;;;;;;5098659;28;19924;-66
2021/05/25 09:58:22;;;;;;;;;;;14.30;94.50;;;;;;5099759;28;19963;-67
2021/05/25 10:00:51;;;;;;;;;;;14.20;93.30;;;;;;5097991;28;20007;-68
2021/05/25 10:03:20;;;;;;;;;;;14.20;93.80;;;;;;5079704;28;19924;-66
2021/05/25 10:06:12;;;;;;;;;;;13.70;94.20;;;;;;5098314;28;19920;-67
2021/05/25 10:08:42;;;;;;;;;;;13.20;94.80;;;;;;5098351;28;19920;-67
2021/05/25 10:11:11;;;;;;;;;;;12.90;95.70;;;;;;5103427;28;19919;-67
2021/05/25 10:13:40;;;;;;;;;;;13.00;95.10;;;;;;5103155;28;19919;-69
2021/05/25 10:16:09;;;;;;;;;;;13.50;94.90;;;;;;5104405;28;19920;-67
2021/05/25 10:18:49;;;;;;;;;;;14.10;94.40;;;;;;5096578;28;19942;-67
2021/05/25 10:21:18;;;;;;;;;;;14.50;93.70;;;;;;5101284;28;20042;-67
2021/05/25 10:23:46;;;;;;;;;;;14.20;93.00;;;;;;5097411;28;20035;-67
2021/05/25 10:26:16;;;;;;;;;;;13.90;93.60;;;;;;5097642;28;20300;-66
2021/05/25 10:28:46;;;;;;;;;;;13.50;94.90;;;;;;5099242;28;20394;-66
2021/05/25 10:31:30;;;;;;;;;;;13.20;95.40;;;;;;5096623;28;20328;-66
2021/05/25 10:34:14;;;;;;;;;;;12.40;96.70;;;;;;5097673;28;19926;-67
2021/05/25 10:36:43;;;;;;;;;;;12.00;99.90;;;;;;5097095;28;19946;-66
2021/05/25 10:39:20;;;;;;;;;;;11.00;99.90;;;;;;5096426;28;20035;-65
2021/05/25 10:41:48;;;;;;;;;;;10.40;99.90;;;;;;5096357;28;19964;-66
2021/05/25 10:44:36;;;;;;;;;;;10.10;99.90;;;;;;5095578;28;19930;-66
2021/05/25 10:47:16;;;;;;;;;;;10.20;99.90;;;;;;5094628;28;19924;-67
2021/05/25 10:49:54;;;;;;;;;;;10.40;99.90;;;;;;5095190;28;19927;-66
2021/05/25 10:52:22;;;;;;;;;;;11.00;99.90;;;;;;5096387;28;19920;-68
2021/05/25 10:54:54;;;;;;;;;;;11.70;99.90;;;;;;5096156;28;19920;-67
2021/05/25 10:57:33;;;;;;;;;;;12.20;99.90;;;;;;5096482;28;19959;-66
2021/05/25 11:00:04;;;;;;;;;;;12.40;99.90;;;;;;5095985;28;19920;-66
2021/05/25 11:02:54;;;;;;;;;;;12.30;99.90;;;;;;5056826;28;19955;-67
2021/05/25 11:05:52;;;;;;;;;;;11.90;99.90;;;;;;5076019;28;19963;-66
2021/05/25 11:08:33;;;;;;;;;;;11.50;99.90;;;;;;5076389;28;19927;-66
2021/05/25 11:11:03;;;;;;;;;;;11.30;99.90;;;;;;5076441;28;20364;-66
2021/05/25 11:13:35;;;;;;;;;;;12.10;99.90;;;;;;5075621;28;19928;-66
2021/05/25 11:16:10;;;;;;;;;;;13.00;99.90;;;;;;5083049;28;19920;-67
2021/05/25 11:18:40;;;;;;;;;;;13.70;99.90;;;;;;5095605;28;20379;-65
2021/05/25 11:23:58;;;;;;;;;;;13.60;99.90;;;;;;5092105;28;19920;-66
2021/05/25 11:26:44;;;;;;;;;;;12.70;99.90;;;;;;5095548;28;19924;-67
2021/05/25 11:29:15;;;;;;;;;;;12.50;99.90;;;;;;5094229;28;20144;-67
2021/05/25 11:31:43;;;;;;;;;;;12.70;99.90;;;;;;5094485;28;19920;-66
2021/05/25 11:34:11;;;;;;;;;;;12.80;99.90;;;;;;5097752;28;19920;-66
2021/05/25 11:36:38;;;;;;;;;;;13.00;99.50;;;;;;5094823;28;20267;-67
2021/05/25 11:39:08;;;;;;;;;;;13.10;98.00;;;;;;5077123;28;19997;-66
2021/05/25 11:41:36;;;;;;;;;;;13.10;96.70;;;;;;5095181;28;19927;-68
2021/05/25 11:44:05;;;;;;;;;;;13.30;95.80;;;;;;5094734;28;20329;-67
2021/05/25 11:46:40;;;;;;;;;;;13.50;95.00;;;;;;5093845;28;20003;-67
2021/05/25 11:49:09;;;;;;;;;;;13.50;95.00;;;;;;5095133;28;20004;-67
2021/05/25 11:51:37;;;;;;;;;;;13.70;94.50;;;;;;5095047;28;19920;-68
2021/05/25 11:54:12;;;;;;;;;;;13.90;94.20;;;;;;5095431;28;19965;-68
2021/05/25 11:56:42;;;;;;;;;;;14.00;94.50;;;;;;5094262;28;19927;-66
2021/05/25 11:59:14;;;;;;;;;;;13.80;93.90;;;;;;5095421;28;20109;-65
2021/05/25 12:01:45;;;;;;;;;;;13.60;93.10;;;;;;5094434;28;19947;-66
2021/05/25 12:04:15;;;;;;;;;;;13.70;92.70;;;;;;5094563;28;20321;-66
2021/05/25 12:06:50;;;;;;;;;;;13.70;92.60;;;;;;5094468;28;19997;-65
2021/05/25 12:09:19;;;;;;;;;;;13.70;92.10;;;;;;5076395;28;19920;-65
2021/05/25 12:11:47;;;;;;;;;;;13.70;92.10;;;;;;5094962;28;19984;-65
2021/05/25 12:14:16;;;;;;;;;;;13.80;91.40;;;;;;5094627;28;19986;-66
2021/05/25 12:16:44;;;;;;;;;;;14.00;91.60;;;;;;5093401;28;20118;-65
2021/05/25 12:19:22;;;;;;;;;;;14.20;91.20;;;;;;5093603;28;19927;-65
2021/05/25 12:21:59;;;;;;;;;;;14.50;91.40;;;;;;5076407;28;20257;-65
2021/05/25 12:24:27;;;;;;;;;;;14.60;87.90;;;;;;5097544;28;19959;-65
2021/05/25 12:26:56;;;;;;;;;;;13.90;87.40;;;;;;5098699;28;19920;-66
2021/05/25 12:29:25;;;;;;;;;;;14.00;84.10;;;;;;5094537;28;19984;-66
2021/05/25 12:31:53;;;;;;;;;;;14.20;82.90;;;;;;5093404;28;19954;-66
2021/05/25 12:34:22;;;;;;;;;;;14.40;82.90;;;;;;5094069;28;19919;-68
2021/05/25 12:36:53;;;;;;;;;;;14.60;82.30;;;;;;5094188;28;19920;-65
2021/05/25 12:39:32;;;;;;;;;;;14.40;82.50;;;;;;5094066;28;19954;-65
2021/05/25 12:42:00;;;;;;;;;;;14.20;84.10;;;;;;5094210;28;19974;-65
2021/05/25 12:44:29;;;;;;;;;;;14.00;86.10;;;;;;5095278;28;19919;-65
2021/05/25 12:46:59;;;;;;;;;;;14.00;86.60;;;;;;5093121;28;19923;-66
2021/05/25 12:49:28;;;;;;;;;;;13.60;88.40;;;;;;5095069;28;19947;-66
2021/05/25 12:52:17;;;;;;;;;;;13.50;89.90;;;;;;5094820;28;20084;-66
2021/05/25 12:54:55;;;;;;;;;;;13.30;90.60;;;;;;5077415;28;20029;-65
2021/05/25 12:57:25;;;;;;;;;;;13.00;91.60;;;;;;5095607;28;19919;-66
2021/05/25 13:00:00;;;;;;;;;;;12.90;92.80;;;;;;5097303;28;20386;-66
2021/05/25 13:02:41;;;;;;;;;;;12.90;93.50;;;;;;5075913;28;19927;-66
2021/05/25 13:05:10;;;;;;;;;;;13.10;93.20;;;;;;5057422;28;19921;-66
2021/05/25 13:07:58;;;;;;;;;;;13.00;93.60;;;;;;5073730;28;19974;-67
2021/05/25 13:10:28;;;;;;;;;;;12.90;95.30;;;;;;5074339;28;19920;-66
2021/05/25 13:13:00;;;;;;;;;;;12.40;99.20;;;;;;5074109;28;20019;-65
2021/05/25 13:15:34;;;;;;;;;;;12.50;99.90;;;;;;5076681;28;20317;-66
2021/05/25 13:18:01;;;;;;;;;;;12.50;99.60;;;;;;5093869;28;20244;-66
2021/05/25 13:20:30;;;;;;;;;;;12.50;99.50;;;;;;5093868;28;19920;-66
2021/05/25 13:22:59;;;;;;;;;;;12.40;99.20;;;;;;5075298;28;19920;-66
2021/05/25 13:25:32;;;;;;;;;;;12.70;98.90;;;;;;5093876;28;19981;-66
2021/05/25 13:28:00;;;;;;;;;;;13.00;97.60;;;;;;5093528;28;19920;-66
2021/05/25 13:30:31;;;;;;;;;;;12.90;97.50;;;;;;5093293;28;19920;-65
2021/05/25 13:32:59;;;;;;;;;;;13.20;97.70;;;;;;5093337;28;19963;-66
2021/05/25 13:35:27;;;;;;;;;;;13.40;97.00;;;;;;5094125;28;19931;-66
2021/05/25 13:38:02;;;;;;;;;;;13.50;96.20;;;;;;5094679;28;19920;-66
2021/05/25 13:40:30;;;;;;;;;;;13.90;95.90;;;;;;5093682;28;19931;-66
2021/05/25 13:42:58;;;;;;;;;;;14.00;95.60;;;;;;5094546;28;19920;-66
2021/05/25 13:45:26;;;;;;;;;;;14.20;94.40;;;;;;5093092;28;19920;-65
2021/05/25 13:47:54;;;;;;;;;;;13.90;94.30;;;;;;5094582;28;19927;-66
2021/05/25 13:50:25;;;;;;;;;;;14.00;94.00;;;;;;5093807;28;19927;-65
2021/05/25 13:52:54;;;;;;;;;;;14.10;94.00;;;;;;5096949;28;19920;-66
2021/05/25 13:55:27;;;;;;;;;;;13.80;93.70;;;;;;5096836;28;19959;-66
2021/05/25 13:57:55;;;;;;;;;;;13.60;93.90;;;;;;5097044;28;20022;-65
2021/05/25 14:00:40;;;;;;;;;;;13.40;94.10;;;;;;5096043;28;19928;-68
2021/05/25 14:03:07;;;;;;;;;;;13.40;93.70;;;;;;5096890;28;20029;-68
2021/05/25 14:05:39;;;;;;;;;;;13.30;93.90;;;;;;5096829;28;20003;-66
2021/05/25 14:08:35;;;;;;;;;;;13.50;94.10;;;;;;5101513;28;19919;-66
2021/05/25 14:11:07;;;;;;;;;;;13.60;94.10;;;;;;5097799;28;19919;-68
2021/05/25 14:13:35;;;;;;;;;;;13.50;94.20;;;;;;5099737;28;20363;-66
2021/05/25 14:16:04;;;;;;;;;;;13.30;94.50;;;;;;5096834;28;20201;-65
2021/05/25 14:18:31;;;;;;;;;;;13.20;94.80;;;;;;5078642;28;20309;-66
2021/05/25 14:20:59;;;;;;;;;;;13.20;95.60;;;;;;5080619;28;19920;-67
2021/05/25 14:23:27;;;;;;;;;;;13.10;95.90;;;;;;5097012;28;19942;-66
2021/05/25 14:25:55;;;;;;;;;;;12.70;97.20;;;;;;5097980;28;20011;-66
2021/05/25 14:28:23;;;;;;;;;;;12.30;99.90;;;;;;5096618;28;20233;-66
2021/05/25 14:30:51;;;;;;;;;;;11.50;99.90;;;;;;5095797;28;19920;-65
2021/05/25 14:33:21;;;;;;;;;;;11.00;99.90;;;;;;5096239;28;20325;-68
2021/05/25 14:35:50;;;;;;;;;;;10.60;99.90;;;;;;5096010;28;19920;-66
2021/05/25 14:38:18;;;;;;;;;;;10.40;99.90;;;;;;5096398;28;20018;-65
2021/05/25 14:40:46;;;;;;;;;;;10.80;99.90;;;;;;5096550;28;19926;-66
2021/05/25 14:43:13;;;;;;;;;;;11.30;99.90;;;;;;5096632;28;20376;-66
2021/05/25 14:45:42;;;;;;;;;;;11.90;99.90;;;;;;5095291;28;20425;-68
2021/05/25 14:48:09;;;;;;;;;;;12.20;99.90;;;;;;5097506;28;19986;-66
2021/05/25 14:50:37;;;;;;;;;;;12.50;99.90;;;;;;5102082;28;19927;-66
2021/05/25 14:53:09;;;;;;;;;;;12.70;99.90;;;;;;5097619;28;19959;-68